createdAt,value
2023-03-04T00:01:24.020Z,84.42
2023-03-04T00:03:51.558Z,84.55
2023-03-04T00:06:18.912Z,84.06
2023-03-04T00:08:46.130Z,83.02
2023-03-04T00:11:13.751Z,82.45
2023-03-04T00:13:40.986Z,81.29
2023-03-04T00:16:08.273Z,80.73
2023-03-04T00:18:35.940Z,80.34
2023-03-04T00:21:03.318Z,79.72
2023-03-04T00:23:30.556Z,79.38
2023-03-04T00:25:58.480Z,79.63
2023-03-04T00:28:26.021Z,79.71
2023-03-04T00:30:53.374Z,80.54
2023-03-04T00:33:21.146Z,80.91
2023-03-04T00:35:49.220Z,81.14
2023-03-04T00:38:16.500Z,80.41
2023-03-04T00:40:44.159Z,80.32
2023-03-04T00:43:11.447Z,80.77
2023-03-04T00:45:38.712Z,80.63
2023-03-04T00:48:06.573Z,79.16
2023-03-04T00:50:33.831Z,78.30
2023-03-04T00:53:01.927Z,79.30
2023-03-04T00:55:30.321Z,81.36
2023-03-04T00:57:57.799Z,83.20
2023-03-04T01:00:25.102Z,85.11
2023-03-04T01:02:52.686Z,85.84
2023-03-04T01:05:20.108Z,86.43
2023-03-04T01:07:47.336Z,87.32
2023-03-04T01:10:15.305Z,88.46
2023-03-04T01:12:42.901Z,90.12
2023-03-04T01:15:11.250Z,91.04
2023-03-04T01:17:40.018Z,92.17
2023-03-04T01:20:07.878Z,92.42
2023-03-04T01:22:35.964Z,92.81
2023-03-04T01:25:03.805Z,93.51
2023-03-04T01:27:32.628Z,94.00
2023-03-04T01:29:59.872Z,95.04
2023-03-04T01:32:29.065Z,96.00
2023-03-04T01:34:56.412Z,97.00
2023-03-04T01:37:23.728Z,96.91
2023-03-04T01:39:51.227Z,96.41
2023-03-04T01:42:19.545Z,95.95
2023-03-04T01:44:46.795Z,96.52
2023-03-04T01:47:14.709Z,96.01
2023-03-04T01:49:42.145Z,94.82
2023-03-04T01:52:10.976Z,93.88
2023-03-04T01:54:38.597Z,92.80
2023-03-04T01:57:25.444Z,91.46
2023-03-04T02:00:11.616Z,90.77
2023-03-04T02:02:41.114Z,89.75
2023-03-04T02:05:08.891Z,88.89
2023-03-04T02:07:36.118Z,88.00
2023-03-04T02:10:03.845Z,87.18
2023-03-04T02:12:32.162Z,86.96
2023-03-04T02:14:59.370Z,85.89
2023-03-04T02:17:27.194Z,86.06
2023-03-04T02:20:06.564Z,85.96
2023-03-04T02:22:34.261Z,85.53
2023-03-04T02:25:03.975Z,85.74
2023-03-04T02:27:31.778Z,86.17
2023-03-04T02:29:59.056Z,86.47
2023-03-04T02:32:27.533Z,87.03
2023-03-04T02:34:54.793Z,87.50
2023-03-04T02:37:22.068Z,87.92
2023-03-04T02:39:50.816Z,87.82
2023-03-04T02:42:18.971Z,88.33
2023-03-04T02:44:48.370Z,88.85
2023-03-04T02:47:17.905Z,89.01
2023-03-04T02:49:45.121Z,90.42
2023-03-04T02:52:18.033Z,91.22
2023-03-04T02:54:45.608Z,92.00
2023-03-04T02:57:13.607Z,92.01
2023-03-04T02:59:41.710Z,91.48
2023-03-04T03:02:10.402Z,90.62
2023-03-04T03:04:38.130Z,89.78
2023-03-04T03:07:07.666Z,89.69
2023-03-04T03:09:35.334Z,89.15
2023-03-04T03:12:02.518Z,88.37
2023-03-04T03:14:30.662Z,86.89
2023-03-04T03:16:58.500Z,86.81
2023-03-04T03:19:25.695Z,86.27
2023-03-04T03:21:52.989Z,86.07
2023-03-04T03:24:20.691Z,85.92
2023-03-04T03:26:47.847Z,85.36
2023-03-04T03:29:15.028Z,85.44
2023-03-04T03:31:42.633Z,84.73
2023-03-04T03:34:09.884Z,84.80
2023-03-04T03:36:37.153Z,85.01
2023-03-04T03:39:04.857Z,84.62
2023-03-04T03:41:32.020Z,84.12
2023-03-04T03:43:59.151Z,84.47
2023-03-04T03:46:27.359Z,84.50
2023-03-04T03:48:54.585Z,84.91
2023-03-04T03:51:21.768Z,84.97
2023-03-04T03:53:49.345Z,85.06
2023-03-04T03:56:16.515Z,84.78
2023-03-04T03:58:44.015Z,85.18
2023-03-04T04:01:11.463Z,85.95
2023-03-04T04:03:40.009Z,86.91
2023-03-04T04:06:07.220Z,87.19
2023-03-04T04:08:34.439Z,88.02
2023-03-04T04:11:01.947Z,88.60
2023-03-04T04:13:29.100Z,88.65
2023-03-04T04:15:56.866Z,89.50
2023-03-04T04:18:25.862Z,89.88
2023-03-04T04:20:53.648Z,90.13
2023-03-04T04:23:20.909Z,90.11
2023-03-04T04:25:48.340Z,89.82
2023-03-04T04:28:15.543Z,89.71
2023-03-04T04:30:42.923Z,89.36
2023-03-04T04:33:11.046Z,89.48
2023-03-04T04:35:40.972Z,89.68
2023-03-04T04:38:08.300Z,89.72
2023-03-04T04:40:36.110Z,89.80
2023-03-04T04:43:03.257Z,90.53
2023-03-04T04:45:30.420Z,91.16
2023-03-04T04:47:58.222Z,92.36
2023-03-04T04:50:25.615Z,93.15
2023-03-04T04:52:53.014Z,93.57
2023-03-04T04:55:20.659Z,94.12
2023-03-04T04:57:47.811Z,94.46
2023-03-04T05:00:15.307Z,95.25
2023-03-04T05:02:42.807Z,96.04
2023-03-04T05:05:10.094Z,96.94
2023-03-04T05:07:37.283Z,97.70
2023-03-04T05:10:04.971Z,98.31
2023-03-04T05:12:32.600Z,99.43
2023-03-04T05:15:00.952Z,100.00
2023-03-04T05:17:28.395Z,100.00
2023-03-04T05:19:55.557Z,100.00
2023-03-04T05:22:22.672Z,100.00
2023-03-04T05:24:50.207Z,100.00
2023-03-04T05:27:17.413Z,100.00
2023-03-04T05:29:46.767Z,100.00
2023-03-04T05:32:14.279Z,100.00
2023-03-04T05:34:41.489Z,100.00
2023-03-04T05:37:08.637Z,100.00
2023-03-04T05:39:36.108Z,100.00
2023-03-04T05:42:03.369Z,100.00
2023-03-04T05:44:30.529Z,100.00
2023-03-04T05:46:57.947Z,100.00
2023-03-04T05:49:25.140Z,100.00
2023-03-04T05:51:52.355Z,100.00
2023-03-04T05:54:19.854Z,100.00
2023-03-04T05:56:47.026Z,100.00
2023-03-04T05:59:20.396Z,100.00
2023-03-04T06:01:49.706Z,100.00
2023-03-04T06:04:17.339Z,100.00
2023-03-04T06:06:46.612Z,100.00
2023-03-04T06:09:14.415Z,100.00
2023-03-04T06:11:42.089Z,100.00
2023-03-04T06:14:09.402Z,100.00
2023-03-04T06:16:36.681Z,100.00
2023-03-04T06:19:04.390Z,100.00
2023-03-04T06:21:31.651Z,100.00
2023-03-04T06:23:58.844Z,100.00
2023-03-04T06:26:26.374Z,100.00
2023-03-04T06:28:56.902Z,100.00
2023-03-04T06:31:26.844Z,100.00
2023-03-04T06:33:54.335Z,100.00
2023-03-04T06:36:21.486Z,100.00
2023-03-04T06:38:48.678Z,100.00
2023-03-04T06:41:16.269Z,100.00
2023-03-04T06:43:43.463Z,100.00
2023-03-04T06:46:10.748Z,100.00
2023-03-04T06:48:38.474Z,100.00
2023-03-04T06:51:06.744Z,100.00
2023-03-04T06:53:33.906Z,100.00
2023-03-04T06:56:01.500Z,100.00
2023-03-04T06:58:28.668Z,100.00
2023-03-04T07:00:55.846Z,100.00
2023-03-04T07:03:23.646Z,100.00
2023-03-04T07:05:50.807Z,100.00
2023-03-04T07:08:18.680Z,100.00
2023-03-04T07:10:47.085Z,100.00
2023-03-04T07:13:14.321Z,100.00
2023-03-04T07:15:41.571Z,100.00
2023-03-04T07:18:09.029Z,100.00
2023-03-04T07:20:36.498Z,100.00
2023-03-04T07:23:03.640Z,100.00
2023-03-04T07:25:31.269Z,100.00
2023-03-04T07:27:58.423Z,100.00
2023-03-04T07:30:25.979Z,100.00
2023-03-04T07:32:53.548Z,100.00
2023-03-04T07:35:20.783Z,100.00
2023-03-04T07:37:48.057Z,100.00
2023-03-04T07:40:15.593Z,100.00
2023-03-04T07:42:42.808Z,100.00
2023-03-04T07:45:10.497Z,100.00
2023-03-04T07:47:38.527Z,100.00
2023-03-04T07:50:06.787Z,100.00
2023-03-04T07:52:33.931Z,100.00
2023-03-04T07:55:01.415Z,99.41
2023-03-04T07:57:28.566Z,98.92
2023-03-04T07:59:55.816Z,96.69
2023-03-04T08:02:23.345Z,97.27
2023-03-04T08:04:50.799Z,95.62
2023-03-04T08:07:18.216Z,94.67
2023-03-04T08:09:45.343Z,93.66
2023-03-04T08:12:12.789Z,91.96
2023-03-04T08:14:39.941Z,88.50
2023-03-04T08:17:07.270Z,87.62
2023-03-04T08:19:34.769Z,85.50
2023-03-04T08:22:02.513Z,85.44
2023-03-04T08:24:29.665Z,84.32
2023-03-04T08:26:57.121Z,79.47
2023-03-04T08:29:24.743Z,79.61
2023-03-04T08:31:52.447Z,77.84
2023-03-04T08:34:21.315Z,76.71
2023-03-04T08:36:48.473Z,75.52
2023-03-04T08:39:16.552Z,74.29
2023-03-04T08:41:44.489Z,71.17
2023-03-04T08:44:11.985Z,72.14
2023-03-04T08:46:39.673Z,72.21
2023-03-04T08:49:07.465Z,70.55
2023-03-04T08:51:35.858Z,69.80
2023-03-04T08:54:03.557Z,70.03
2023-03-04T08:56:30.982Z,70.55
2023-03-04T08:58:58.515Z,68.52
2023-03-04T09:01:25.844Z,67.89
2023-03-04T09:03:53.492Z,68.49
2023-03-04T09:06:20.714Z,68.78
2023-03-04T09:08:47.874Z,68.38
2023-03-04T09:11:16.427Z,67.51
2023-03-04T09:13:43.662Z,66.92
2023-03-04T09:16:11.766Z,66.39
2023-03-04T09:18:40.138Z,65.79
2023-03-04T09:21:08.358Z,66.41
2023-03-04T09:23:35.954Z,65.71
2023-03-04T09:26:13.563Z,66.04
2023-03-04T09:28:40.766Z,64.42
2023-03-04T09:31:12.767Z,65.33
2023-03-04T09:33:41.605Z,64.65
2023-03-04T09:36:09.912Z,65.13
2023-03-04T09:38:38.709Z,65.26
2023-03-04T09:41:10.037Z,64.62
2023-03-04T09:43:38.183Z,64.94
2023-03-04T09:46:07.169Z,64.21
2023-03-04T09:48:44.735Z,63.46
2023-03-04T09:51:14.957Z,62.54
2023-03-04T09:53:48.183Z,63.92
2023-03-04T09:56:15.719Z,62.57
2023-03-04T09:58:48.767Z,62.66
2023-03-04T10:01:16.299Z,61.80
2023-03-04T10:03:45.422Z,61.72
2023-03-04T10:06:13.602Z,62.85
2023-03-04T10:08:46.986Z,60.84
2023-03-04T10:11:18.900Z,61.65
2023-03-04T10:14:04.526Z,62.35
2023-03-04T10:16:40.280Z,60.70
2023-03-04T10:19:13.599Z,61.08
2023-03-04T10:21:47.284Z,61.09
2023-03-04T10:24:18.837Z,60.27
2023-03-04T10:26:47.147Z,59.86
2023-03-04T10:29:18.103Z,59.93
2023-03-04T10:31:45.841Z,58.86
2023-03-04T10:34:13.678Z,58.22
2023-03-04T10:37:00.568Z,58.19
2023-03-04T10:39:29.762Z,58.36
2023-03-04T10:41:58.429Z,56.57
2023-03-04T10:44:25.944Z,56.25
2023-03-04T10:46:54.535Z,55.64
2023-03-04T10:49:22.253Z,54.73
2023-03-04T10:51:51.811Z,53.11
2023-03-04T10:54:23.958Z,52.92
2023-03-04T10:56:55.923Z,53.06
2023-03-04T10:59:42.193Z,51.99
2023-03-04T11:02:16.821Z,52.57
2023-03-04T11:04:47.982Z,52.17
2023-03-04T11:07:15.123Z,51.10
2023-03-04T11:09:44.133Z,48.90
2023-03-04T11:12:12.864Z,50.12
2023-03-04T11:14:43.139Z,50.98
2023-03-04T11:17:18.210Z,50.18
2023-03-04T11:19:47.527Z,50.47
2023-03-04T11:22:16.229Z,50.19
2023-03-04T11:24:43.537Z,50.05
2023-03-04T11:27:24.567Z,49.13
2023-03-04T11:29:52.499Z,49.07
2023-03-04T11:32:23.056Z,49.21
2023-03-04T11:35:05.695Z,48.88
2023-03-04T11:37:33.274Z,47.67
2023-03-04T11:40:04.816Z,47.45
2023-03-04T11:42:37.154Z,47.53
2023-03-04T11:45:05.030Z,47.29
2023-03-04T11:47:44.496Z,46.61
2023-03-04T11:50:18.012Z,48.03
2023-03-04T11:52:48.911Z,48.30
2023-03-04T11:55:29.401Z,47.05
2023-03-04T11:58:15.504Z,48.14
2023-03-04T12:00:46.231Z,48.61
2023-03-04T12:03:32.604Z,49.47
2023-03-04T12:06:03.456Z,47.99
2023-03-04T12:08:33.581Z,48.25
2023-03-04T12:11:05.014Z,48.27
2023-03-04T12:13:43.208Z,49.33
2023-03-04T12:16:29.446Z,49.25
2023-03-04T12:19:06.176Z,49.62
2023-03-04T12:21:56.665Z,49.62
2023-03-04T12:24:29.908Z,49.67
2023-03-04T12:27:01.206Z,51.10
2023-03-04T12:29:30.460Z,50.43
2023-03-04T12:32:04.164Z,50.62
2023-03-04T12:34:31.839Z,50.27
2023-03-04T12:37:05.649Z,51.28
2023-03-04T12:39:33.953Z,51.21
2023-03-04T12:42:01.278Z,50.90
2023-03-04T12:44:28.802Z,51.86
2023-03-04T12:47:06.892Z,51.49
2023-03-04T12:50:06.074Z,52.32
2023-03-04T12:52:59.524Z,51.61
2023-03-04T12:55:30.602Z,52.29
2023-03-04T12:57:58.060Z,51.77
2023-03-04T13:00:25.257Z,51.76
2023-03-04T13:02:56.533Z,52.19
2023-03-04T13:05:33.463Z,51.65
2023-03-04T13:08:06.717Z,51.69
2023-03-04T13:10:34.270Z,51.48
2023-03-04T13:13:01.810Z,50.80
2023-03-04T13:15:32.925Z,50.34
2023-03-04T13:18:26.206Z,50.50
2023-03-04T13:21:06.316Z,50.81
2023-03-04T13:23:33.781Z,48.05
2023-03-04T13:26:20.718Z,45.67
2023-03-04T13:28:52.290Z,45.02
2023-03-04T13:31:28.641Z,45.62
2023-03-04T13:33:56.788Z,45.48
2023-03-04T13:36:26.826Z,44.05
2023-03-04T13:38:58.392Z,43.34
2023-03-04T13:41:33.975Z,42.99
2023-03-04T13:44:01.967Z,43.02
2023-03-04T13:46:30.377Z,43.70
2023-03-04T13:48:59.367Z,44.41
2023-03-04T13:51:30.483Z,42.10
2023-03-04T13:53:58.295Z,40.48
2023-03-04T13:56:29.604Z,40.06
2023-03-04T13:59:09.229Z,40.63
2023-03-04T14:01:39.714Z,40.66
2023-03-04T14:04:21.025Z,40.30
2023-03-04T14:06:48.794Z,40.06
2023-03-04T14:09:17.349Z,39.14
2023-03-04T14:11:44.701Z,40.22
2023-03-04T14:14:12.673Z,40.71
2023-03-04T14:16:41.151Z,40.94
2023-03-04T14:19:14.028Z,41.81
2023-03-04T14:21:44.318Z,42.31
2023-03-04T14:24:18.719Z,41.27
2023-03-04T14:26:46.446Z,41.91
2023-03-04T14:29:23.689Z,41.74
2023-03-04T14:31:51.617Z,40.87
2023-03-04T14:34:39.359Z,41.28
2023-03-04T14:37:27.123Z,40.86
2023-03-04T14:39:57.964Z,41.23
2023-03-04T14:42:26.341Z,41.50
2023-03-04T14:44:54.796Z,40.93
2023-03-04T14:47:26.297Z,41.45
2023-03-04T14:49:53.943Z,41.24
2023-03-04T14:52:31.039Z,40.86
2023-03-04T14:54:59.847Z,39.19
2023-03-04T14:57:29.885Z,39.76
2023-03-04T14:59:57.175Z,39.19
2023-03-04T15:02:31.541Z,38.52
2023-03-04T15:05:00.383Z,39.62
2023-03-04T15:07:32.316Z,39.39
2023-03-04T15:10:00.953Z,39.14
2023-03-04T15:12:29.154Z,39.53
2023-03-04T15:14:58.570Z,39.86
2023-03-04T15:17:25.854Z,39.75
2023-03-04T15:20:00.162Z,40.00
2023-03-04T15:22:27.394Z,40.57
2023-03-04T15:24:54.988Z,41.06
2023-03-04T15:27:24.088Z,42.05
2023-03-04T15:29:56.068Z,42.91
2023-03-04T15:32:23.628Z,44.08
2023-03-04T15:34:50.935Z,45.12
2023-03-04T15:37:20.233Z,45.64
2023-03-04T15:39:47.863Z,46.54
2023-03-04T15:42:15.178Z,47.39
2023-03-04T15:44:42.478Z,48.18
2023-03-04T15:47:15.789Z,48.32
2023-03-04T15:49:43.462Z,48.99
2023-03-04T15:52:16.231Z,49.59
2023-03-04T15:54:45.197Z,49.97
2023-03-04T15:57:23.254Z,49.88
2023-03-04T15:59:50.729Z,50.71
2023-03-04T16:02:25.007Z,50.57
2023-03-04T16:04:52.571Z,50.77
2023-03-04T16:07:21.352Z,51.56
2023-03-04T16:09:53.266Z,51.58
2023-03-04T16:12:20.763Z,51.95
2023-03-04T16:14:49.273Z,52.60
2023-03-04T16:17:16.586Z,52.94
2023-03-04T16:19:44.256Z,53.13
2023-03-04T16:22:22.182Z,53.50
2023-03-04T16:24:49.690Z,53.82
2023-03-04T16:27:17.927Z,54.12
2023-03-04T16:29:45.139Z,54.64
2023-03-04T16:32:12.694Z,54.99
2023-03-04T16:34:39.889Z,55.28
2023-03-04T16:37:08.057Z,55.70
2023-03-04T16:39:35.834Z,55.35
2023-03-04T16:42:03.140Z,55.36
2023-03-04T16:44:30.359Z,54.48
2023-03-04T16:46:58.678Z,53.58
2023-03-04T16:49:28.378Z,53.61
2023-03-04T16:51:55.768Z,53.20
2023-03-04T16:54:24.739Z,53.88
2023-03-04T16:56:51.995Z,53.70
2023-03-04T16:59:19.278Z,53.95
2023-03-04T17:01:46.977Z,53.24
2023-03-04T17:04:14.511Z,53.22
2023-03-04T17:06:41.758Z,52.99
2023-03-04T17:09:09.501Z,53.44
2023-03-04T17:11:36.751Z,53.54
2023-03-04T17:14:04.478Z,54.13
2023-03-04T17:16:32.820Z,53.59
2023-03-04T17:19:00.048Z,53.96
2023-03-04T17:21:27.346Z,54.25
2023-03-04T17:23:55.096Z,54.68
2023-03-04T17:26:23.005Z,55.48
2023-03-04T17:28:50.519Z,55.41
2023-03-04T17:31:18.628Z,56.04
2023-03-04T17:33:46.025Z,55.71
2023-03-04T17:36:13.861Z,55.82
2023-03-04T17:38:41.599Z,55.91
2023-03-04T17:41:10.041Z,56.29
2023-03-04T17:43:37.275Z,56.56
2023-03-04T17:46:05.671Z,56.99
2023-03-04T17:48:33.072Z,57.27
2023-03-04T17:51:01.328Z,57.61
2023-03-04T17:53:28.964Z,58.07
2023-03-04T17:55:57.343Z,58.60
2023-03-04T17:58:24.719Z,59.02
2023-03-04T18:00:52.856Z,59.42
2023-03-04T18:03:20.454Z,60.35
2023-03-04T18:05:47.696Z,61.04
2023-03-04T18:08:14.924Z,62.00
2023-03-04T18:10:42.713Z,63.40
2023-03-04T18:13:10.468Z,64.97
2023-03-04T18:15:37.727Z,66.38
2023-03-04T18:18:05.245Z,67.64
2023-03-04T18:20:32.612Z,68.55
2023-03-04T18:22:59.914Z,69.16
2023-03-04T18:25:28.503Z,69.92
2023-03-04T18:27:55.761Z,70.72
2023-03-04T18:30:27.226Z,71.43
2023-03-04T18:32:56.011Z,72.38
2023-03-04T18:35:24.462Z,73.31
2023-03-04T18:37:51.902Z,74.41
2023-03-04T18:40:19.607Z,75.35
2023-03-04T18:42:46.904Z,76.01
2023-03-04T18:45:15.268Z,77.04
2023-03-04T18:47:44.374Z,77.61
2023-03-04T18:50:11.784Z,78.57
2023-03-04T18:52:39.073Z,79.42
2023-03-04T18:55:06.719Z,80.82
2023-03-04T18:57:34.039Z,81.08
2023-03-04T19:00:02.141Z,81.84
2023-03-04T19:02:49.526Z,81.94
2023-03-04T19:05:19.200Z,82.22
2023-03-04T19:07:46.941Z,82.58
2023-03-04T19:10:14.193Z,83.63
2023-03-04T19:12:41.419Z,84.01
2023-03-04T19:15:10.238Z,84.66
2023-03-04T19:17:37.991Z,85.56
2023-03-04T19:20:06.426Z,86.38
2023-03-04T19:22:34.160Z,87.77
2023-03-04T19:25:06.396Z,88.97
2023-03-04T19:27:33.923Z,89.65
2023-03-04T19:30:01.474Z,90.45
2023-03-04T19:32:28.813Z,91.02
2023-03-04T19:34:56.406Z,91.88
2023-03-04T19:37:23.646Z,92.37
2023-03-04T19:39:54.389Z,92.95
2023-03-04T19:42:22.294Z,93.87
2023-03-04T19:44:49.892Z,94.40
2023-03-04T19:47:17.734Z,94.79
2023-03-04T19:49:45.681Z,95.33
2023-03-04T19:52:12.932Z,95.66
2023-03-04T19:54:40.312Z,95.82
2023-03-04T19:57:07.896Z,95.78
2023-03-04T19:59:35.313Z,96.57
2023-03-04T20:02:03.008Z,97.16
2023-03-04T20:04:30.651Z,97.86
2023-03-04T20:06:58.290Z,98.43
2023-03-04T20:09:25.433Z,98.79
2023-03-04T20:12:00.472Z,99.36
2023-03-04T20:14:27.854Z,99.73
2023-03-04T20:16:58.760Z,100.00
2023-03-04T20:19:26.041Z,100.00
2023-03-04T20:21:53.245Z,100.00
2023-03-04T20:24:23.151Z,100.00
2023-03-04T20:26:50.817Z,100.00
2023-03-04T20:29:18.098Z,100.00
2023-03-04T20:31:46.469Z,100.00
2023-03-04T20:34:13.672Z,100.00
2023-03-04T20:36:40.974Z,100.00
2023-03-04T20:39:27.073Z,100.00
2023-03-04T20:41:56.203Z,100.00
2023-03-04T20:44:23.809Z,100.00
2023-03-04T20:46:51.250Z,100.00
2023-03-04T20:49:22.195Z,100.00
2023-03-04T20:51:50.422Z,100.00
2023-03-04T20:54:17.604Z,100.00
2023-03-04T20:56:44.896Z,100.00
2023-03-04T20:59:12.588Z,100.00
2023-03-04T21:01:40.529Z,100.00
2023-03-04T21:04:13.578Z,100.00
2023-03-04T21:06:41.304Z,100.00
2023-03-04T21:09:11.021Z,100.00
2023-03-04T21:11:41.395Z,100.00
2023-03-04T21:14:13.200Z,100.00
2023-03-04T21:16:40.604Z,100.00
2023-03-04T21:19:10.583Z,100.00
2023-03-04T21:21:38.659Z,100.00
2023-03-04T21:24:06.032Z,100.00
2023-03-04T21:26:33.331Z,100.00
2023-03-04T21:29:00.839Z,100.00
2023-03-04T21:31:31.508Z,100.00
2023-03-04T21:34:00.210Z,100.00
2023-03-04T21:36:27.788Z,100.00
2023-03-04T21:38:55.094Z,100.00
2023-03-04T21:41:23.066Z,100.00
2023-03-04T21:43:51.535Z,100.00
2023-03-04T21:46:19.428Z,100.00
2023-03-04T21:48:48.280Z,100.00
2023-03-04T21:51:16.593Z,100.00
2023-03-04T21:53:44.085Z,100.00
2023-03-04T21:56:11.645Z,100.00
2023-03-04T21:58:42.132Z,100.00
2023-03-04T22:01:13.290Z,100.00
2023-03-04T22:03:40.987Z,100.00
2023-03-04T22:06:09.098Z,100.00
2023-03-04T22:08:36.462Z,100.00
2023-03-04T22:11:06.859Z,100.00
2023-03-04T22:13:34.136Z,100.00
2023-03-04T22:16:01.687Z,100.00
2023-03-04T22:18:29.260Z,100.00
2023-03-04T22:21:04.105Z,100.00
2023-03-04T22:23:32.108Z,100.00
2023-03-04T22:26:18.817Z,100.00
2023-03-04T22:28:46.583Z,100.00
2023-03-04T22:31:17.999Z,100.00
2023-03-04T22:33:45.731Z,100.00
2023-03-04T22:36:13.426Z,100.00
2023-03-04T22:38:40.763Z,100.00
2023-03-04T22:41:14.851Z,100.00
2023-03-04T22:43:42.304Z,100.00
2023-03-04T22:46:16.616Z,100.00
2023-03-04T22:48:43.937Z,100.00
2023-03-04T22:51:12.596Z,100.00
2023-03-04T22:53:40.039Z,100.00
2023-03-04T22:56:07.440Z,100.00
2023-03-04T22:58:35.216Z,100.00
2023-03-04T23:01:03.169Z,100.00
2023-03-04T23:03:31.024Z,100.00
2023-03-04T23:06:08.843Z,100.00
2023-03-04T23:08:39.194Z,100.00
2023-03-04T23:11:10.710Z,100.00
2023-03-04T23:13:38.495Z,100.00
2023-03-04T23:16:08.019Z,100.00
2023-03-04T23:18:35.555Z,100.00
2023-03-04T23:21:10.298Z,100.00
2023-03-04T23:23:38.264Z,100.00
2023-03-04T23:26:05.905Z,100.00
2023-03-04T23:28:33.483Z,100.00
2023-03-04T23:31:01.291Z,100.00
2023-03-04T23:33:28.521Z,100.00
2023-03-04T23:35:55.827Z,100.00
2023-03-04T23:38:23.464Z,100.00
2023-03-04T23:40:50.734Z,100.00
2023-03-04T23:43:18.046Z,100.00
2023-03-04T23:45:45.653Z,100.00
2023-03-04T23:48:13.382Z,100.00
2023-03-04T23:50:40.638Z,100.00
2023-03-04T23:53:08.192Z,100.00
2023-03-04T23:55:35.423Z,100.00
2023-03-04T23:58:03.173Z,100.00
